Time;durP1;ratioP1;P1;durP2;ratioP2;P2;SDS_P1;SDS_P2;PMS_P1;PMS_P2;Temp;Humidity;BMP_temperature;BMP_pressure;BME280_temperature;BME280_humidity;BME280_pressure;Samples;Min_cycle;Max_cycle;Signal;HPM_P1;HPM_P2
2023/12/11 00:00:28;;;;;;;7.47;4.07;;;12.50;99.90;;;;;;5094901;28;20487;-64
2023/12/11 00:02:55;;;;;;;7.00;3.90;;;12.40;99.90;;;;;;5097496;28;20186;-64
2023/12/11 00:05:21;;;;;;;7.30;4.47;;;12.40;99.90;;;;;;5090866;28;20498;-64
2023/12/11 00:07:47;;;;;;;9.07;4.60;;;12.40;99.90;;;;;;5082487;28;20440;-60
2023/12/11 00:10:14;;;;;;;10.77;4.70;;;12.40;99.90;;;;;;5089877;28;20216;-61
2023/12/11 00:12:40;;;;;;;8.10;4.50;;;12.40;99.90;;;;;;5091553;28;20433;-61
2023/12/11 00:15:06;;;;;;;10.70;5.17;;;12.40;99.90;;;;;;5082862;28;20467;-61
2023/12/11 00:17:32;;;;;;;14.63;4.43;;;12.40;99.90;;;;;;5091943;28;20455;-61
2023/12/11 00:19:58;;;;;;;8.50;4.50;;;12.30;99.90;;;;;;5086058;28;20454;-63
2023/12/11 00:22:24;;;;;;;6.73;4.03;;;12.40;99.90;;;;;;5088969;28;20654;-61
2023/12/11 00:24:50;;;;;;;8.90;4.27;;;12.40;99.90;;;;;;5108060;28;20176;-61
2023/12/11 00:27:16;;;;;;;7.80;4.40;;;12.40;99.90;;;;;;5082338;28;20413;-61
2023/12/11 00:29:42;;;;;;;15.50;4.70;;;12.40;99.90;;;;;;5079026;28;20448;-61
2023/12/11 00:32:08;;;;;;;12.93;4.77;;;12.30;99.90;;;;;;5096348;28;20243;-61
2023/12/11 00:34:34;;;;;;;8.40;4.53;;;12.30;99.90;;;;;;5082726;28;20221;-60
2023/12/11 00:37:00;;;;;;;10.07;4.03;;;12.30;99.90;;;;;;5085902;28;20416;-61
2023/12/11 00:39:26;;;;;;;12.37;4.03;;;12.20;99.90;;;;;;5108008;28;20463;-61
2023/12/11 00:41:52;;;;;;;11.93;4.10;;;12.20;99.90;;;;;;5099329;27;20433;-61
2023/12/11 00:44:18;;;;;;;9.63;4.00;;;12.20;99.90;;;;;;5077204;28;20224;-61
2023/12/11 00:46:44;;;;;;;12.27;4.80;;;12.20;99.90;;;;;;5099605;28;20593;-61
2023/12/11 00:49:10;;;;;;;7.67;4.03;;;12.20;99.90;;;;;;5108359;28;20504;-61
2023/12/11 00:51:35;;;;;;;15.53;4.63;;;12.20;99.90;;;;;;5102968;28;20189;-61
2023/12/11 00:54:01;;;;;;;9.50;4.33;;;12.20;99.90;;;;;;5081096;28;20470;-66
2023/12/11 00:56:28;;;;;;;13.33;5.20;;;12.20;99.90;;;;;;5091304;28;20222;-61
2023/12/11 00:58:53;;;;;;;6.60;4.47;;;12.20;99.90;;;;;;5100213;28;20206;-60
2023/12/11 01:01:19;;;;;;;8.67;3.80;;;12.20;99.90;;;;;;5094729;28;20777;-61
2023/12/11 01:03:45;;;;;;;8.53;4.10;;;12.20;99.90;;;;;;5093325;28;20263;-60
2023/12/11 01:06:11;;;;;;;16.03;4.37;;;12.20;99.90;;;;;;5087130;28;20175;-61
2023/12/11 01:08:39;;;;;;;7.10;3.87;;;12.20;99.90;;;;;;5114880;28;20181;-60
2023/12/11 01:11:06;;;;;;;13.57;4.77;;;12.20;99.90;;;;;;5109065;28;20182;-68
2023/12/11 01:13:32;;;;;;;13.57;4.33;;;12.20;99.90;;;;;;5112761;28;20422;-61
2023/12/11 01:15:58;;;;;;;13.20;4.67;;;12.20;99.90;;;;;;5094440;28;20588;-60
2023/12/11 01:18:25;;;;;;;14.53;4.27;;;12.20;99.90;;;;;;5090637;28;20436;-60
2023/12/11 01:20:52;;;;;;;18.90;5.70;;;12.20;99.90;;;;;;5095759;28;20427;-61
2023/12/11 01:23:18;;;;;;;15.00;3.90;;;12.20;99.90;;;;;;5083251;28;20423;-61
2023/12/11 01:25:44;;;;;;;16.03;4.70;;;12.20;99.90;;;;;;5104283;28;20434;-60
2023/12/11 01:28:09;;;;;;;12.20;4.33;;;12.20;99.90;;;;;;5098331;28;20554;-61
2023/12/11 01:30:35;;;;;;;11.40;4.60;;;12.20;99.90;;;;;;5104092;28;20207;-61
2023/12/11 01:33:04;;;;;;;12.83;4.70;;;12.20;99.90;;;;;;5098123;28;20181;-60
2023/12/11 01:35:33;;;;;;;12.27;4.33;;;12.10;99.90;;;;;;5089010;28;20433;-61
2023/12/11 01:37:59;;;;;;;9.07;4.10;;;12.10;99.90;;;;;;5106811;27;20424;-60
2023/12/11 01:40:25;;;;;;;11.07;4.80;;;12.20;99.90;;;;;;5092888;28;21126;-60
2023/12/11 01:42:51;;;;;;;10.63;4.40;;;12.20;99.90;;;;;;5092684;28;20406;-61
2023/12/11 01:45:17;;;;;;;13.57;5.13;;;12.20;99.90;;;;;;5089795;28;20528;-60
2023/12/11 01:47:43;;;;;;;14.87;5.40;;;12.20;99.90;;;;;;5094895;28;20455;-61
2023/12/11 01:50:09;;;;;;;13.07;5.77;;;12.20;99.90;;;;;;5098861;28;20185;-68
2023/12/11 01:52:36;;;;;;;13.07;4.40;;;12.20;99.90;;;;;;5081793;28;20410;-61
2023/12/11 01:55:04;;;;;;;7.10;4.17;;;12.30;99.90;;;;;;5091309;28;20460;-60
2023/12/11 01:57:30;;;;;;;13.90;4.70;;;12.30;99.90;;;;;;5123545;27;20460;-60
2023/12/11 01:59:56;;;;;;;16.43;5.20;;;12.20;99.90;;;;;;5091027;28;20449;-61
2023/12/11 02:02:22;;;;;;;18.93;4.30;;;12.20;99.90;;;;;;5085753;28;20458;-61
2023/12/11 02:04:49;;;;;;;15.63;4.43;;;12.20;99.90;;;;;;5096170;28;20451;-61
2023/12/11 02:07:16;;;;;;;17.33;5.00;;;12.20;99.90;;;;;;5085272;28;20261;-61
2023/12/11 02:09:42;;;;;;;14.20;4.90;;;12.20;99.90;;;;;;5092040;28;20423;-61
2023/12/11 02:12:08;;;;;;;18.37;4.23;;;12.20;99.90;;;;;;5082630;28;20436;-68
2023/12/11 02:14:34;;;;;;;7.10;4.07;;;12.20;99.90;;;;;;5095760;28;20460;-60
2023/12/11 02:17:00;;;;;;;10.83;6.07;;;12.20;99.90;;;;;;5102031;28;20198;-61
2023/12/11 02:19:26;;;;;;;12.60;4.33;;;12.20;99.90;;;;;;5091741;28;20470;-61
2023/12/11 02:21:53;;;;;;;8.27;4.57;;;12.20;99.90;;;;;;5075587;28;20195;-60
2023/12/11 02:24:23;;;;;;;10.87;4.13;;;12.30;99.90;;;;;;5083136;28;20187;-61
2023/12/11 02:26:49;;;;;;;17.97;5.40;;;12.20;99.90;;;;;;5076810;28;20917;-61
2023/12/11 02:29:15;;;;;;;12.70;4.00;;;12.20;99.90;;;;;;5091506;28;20415;-61
2023/12/11 02:31:41;;;;;;;10.50;3.80;;;12.20;99.90;;;;;;5094943;28;20231;-61
2023/12/11 02:34:08;;;;;;;10.03;4.83;;;12.20;99.90;;;;;;5078334;28;20456;-60
2023/12/11 02:36:34;;;;;;;9.00;3.90;;;12.20;99.90;;;;;;5081221;28;20256;-61
2023/12/11 02:38:59;;;;;;;11.57;4.20;;;12.20;99.90;;;;;;5092090;28;21000;-60
2023/12/11 02:41:25;;;;;;;11.27;3.80;;;12.20;99.90;;;;;;5093318;28;20441;-60
2023/12/11 02:43:51;;;;;;;15.07;4.20;;;12.20;99.90;;;;;;5091541;28;20178;-62
2023/12/11 02:46:17;;;;;;;11.90;4.80;;;12.20;99.90;;;;;;5085953;28;20640;-61
2023/12/11 02:48:43;;;;;;;7.13;3.77;;;12.20;99.90;;;;;;5103131;28;20276;-61
2023/12/11 02:51:08;;;;;;;11.73;4.30;;;12.20;99.90;;;;;;5091903;28;20174;-67
2023/12/11 02:53:34;;;;;;;10.90;4.37;;;12.20;99.90;;;;;;5093717;28;20767;-61
2023/12/11 02:56:00;;;;;;;10.07;4.60;;;12.20;99.90;;;;;;5087675;28;20200;-60
2023/12/11 02:58:26;;;;;;;12.87;4.93;;;12.20;99.90;;;;;;5089802;28;20483;-61
2023/12/11 03:00:52;;;;;;;10.17;4.33;;;12.20;99.90;;;;;;5082736;28;20273;-62
2023/12/11 03:03:17;;;;;;;12.90;4.83;;;12.20;99.90;;;;;;5089567;28;20214;-61
2023/12/11 03:05:43;;;;;;;10.97;4.23;;;12.20;99.90;;;;;;5073273;28;20205;-61
2023/12/11 03:08:09;;;;;;;11.73;4.43;;;12.10;99.90;;;;;;5077551;28;20189;-61
2023/12/11 03:10:35;;;;;;;11.93;4.63;;;12.20;99.90;;;;;;5087407;28;20178;-61
2023/12/11 03:13:01;;;;;;;11.20;5.20;;;12.20;99.90;;;;;;5076953;28;20246;-61
2023/12/11 03:15:27;;;;;;;8.00;4.10;;;12.20;99.90;;;;;;5098300;28;20271;-61
2023/12/11 03:17:52;;;;;;;11.40;4.50;;;12.30;99.90;;;;;;5078178;28;20769;-61
2023/12/11 03:20:18;;;;;;;7.87;3.80;;;12.30;99.90;;;;;;5100825;28;20465;-61
2023/12/11 03:22:44;;;;;;;10.47;4.40;;;12.20;99.90;;;;;;5087478;28;20191;-61
2023/12/11 03:25:10;;;;;;;12.30;4.90;;;12.20;99.90;;;;;;5073386;28;20653;-60
2023/12/11 03:27:36;;;;;;;11.20;4.03;;;12.00;99.90;;;;;;5081549;28;20183;-61
2023/12/11 03:30:02;;;;;;;12.50;4.53;;;12.00;99.90;;;;;;5097099;28;20169;-61
2023/12/11 03:32:27;;;;;;;20.63;5.00;;;12.00;99.90;;;;;;5106195;28;20263;-61
2023/12/11 03:34:53;;;;;;;16.77;5.07;;;11.90;99.90;;;;;;5090745;28;20429;-60
2023/12/11 03:37:19;;;;;;;8.53;4.07;;;12.00;99.90;;;;;;5087230;28;20176;-61
2023/12/11 03:39:45;;;;;;;11.27;4.00;;;12.00;99.90;;;;;;5095524;28;20207;-61
2023/12/11 03:42:10;;;;;;;15.63;5.00;;;12.00;99.90;;;;;;5090163;28;20182;-61
2023/12/11 03:44:36;;;;;;;10.67;4.77;;;12.00;99.90;;;;;;5086964;28;20181;-61
2023/12/11 03:47:02;;;;;;;9.53;4.00;;;12.00;99.90;;;;;;5108497;28;20618;-61
2023/12/11 03:49:28;;;;;;;8.17;3.70;;;12.00;99.90;;;;;;5100513;28;20193;-61
2023/12/11 03:51:54;;;;;;;14.00;4.83;;;12.00;99.90;;;;;;5082162;28;20438;-61
2023/12/11 03:54:20;;;;;;;11.73;5.00;;;12.00;99.90;;;;;;5097869;28;20172;-61
2023/12/11 03:56:45;;;;;;;15.00;5.90;;;12.00;99.90;;;;;;5089611;28;20263;-61
2023/12/11 03:59:11;;;;;;;11.70;4.27;;;11.90;99.90;;;;;;5089172;28;20537;-60
2023/12/11 04:01:38;;;;;;;6.70;3.87;;;11.90;99.90;;;;;;5089818;28;20272;-61
2023/12/11 04:04:04;;;;;;;7.67;4.00;;;11.90;99.90;;;;;;5091543;28;20177;-61
2023/12/11 04:06:30;;;;;;;7.07;3.53;;;11.90;99.90;;;;;;5075310;28;20915;-61
2023/12/11 04:08:55;;;;;;;8.00;4.37;;;11.90;99.90;;;;;;5078273;28;20437;-61
2023/12/11 04:11:21;;;;;;;10.00;3.90;;;12.00;99.90;;;;;;5079259;28;20448;-61
2023/12/11 04:13:47;;;;;;;9.50;4.40;;;11.90;99.90;;;;;;5087913;28;20189;-61
2023/12/11 04:16:13;;;;;;;9.63;4.17;;;11.90;99.90;;;;;;5082351;28;20689;-60
2023/12/11 04:18:39;;;;;;;10.17;3.97;;;11.80;99.90;;;;;;5086948;28;20213;-61
2023/12/11 04:21:06;;;;;;;8.67;4.73;;;11.80;99.90;;;;;;5092769;28;20434;-61
2023/12/11 04:23:32;;;;;;;14.03;5.10;;;11.80;99.90;;;;;;5074251;28;20418;-61
2023/12/11 04:25:59;;;;;;;14.07;5.27;;;11.90;99.90;;;;;;5094424;28;20432;-61
2023/12/11 04:28:27;;;;;;;7.70;4.30;;;11.90;99.90;;;;;;5093985;28;20480;-61
2023/12/11 04:30:53;;;;;;;11.10;4.20;;;11.90;99.90;;;;;;5079753;28;20412;-60
2023/12/11 04:33:20;;;;;;;14.40;4.60;;;11.90;99.90;;;;;;5080588;28;20751;-63
2023/12/11 04:35:45;;;;;;;11.50;4.20;;;11.90;99.90;;;;;;5096156;28;20434;-61
2023/12/11 04:38:12;;;;;;;14.63;5.57;;;11.90;99.90;;;;;;5094267;28;20414;-61
2023/12/11 04:40:38;;;;;;;10.20;5.20;;;11.90;99.90;;;;;;5078232;28;20794;-61
2023/12/11 04:43:04;;;;;;;12.20;5.10;;;11.90;99.90;;;;;;5094851;28;20436;-61
2023/12/11 04:45:30;;;;;;;15.90;5.00;;;11.90;99.90;;;;;;5091125;28;20432;-61
2023/12/11 04:47:55;;;;;;;11.50;4.83;;;11.90;99.90;;;;;;5083247;28;20423;-61
2023/12/11 04:50:21;;;;;;;8.97;4.50;;;11.90;99.90;;;;;;5085236;28;20433;-61
2023/12/11 04:52:47;;;;;;;5.70;3.10;;;12.00;99.90;;;;;;5088954;28;20174;-61
2023/12/11 04:55:13;;;;;;;8.87;3.30;;;11.90;99.90;;;;;;5077588;28;20462;-60
2023/12/11 04:57:39;;;;;;;9.23;3.30;;;11.90;99.90;;;;;;5086854;28;20560;-59
2023/12/11 05:00:05;;;;;;;5.40;3.17;;;11.90;99.90;;;;;;5092048;28;20663;-61
2023/12/11 05:02:31;;;;;;;4.83;2.20;;;11.80;99.90;;;;;;5088976;28;20659;-61
2023/12/11 05:04:57;;;;;;;8.70;3.13;;;11.80;99.90;;;;;;5122469;27;20454;-61
2023/12/11 05:07:23;;;;;;;9.40;3.10;;;11.80;99.90;;;;;;5088719;28;20660;-61
2023/12/11 05:09:49;;;;;;;7.97;3.57;;;11.90;99.90;;;;;;5093802;28;20207;-60
2023/12/11 05:12:15;;;;;;;13.13;4.33;;;11.90;99.90;;;;;;5114824;28;20395;-60
2023/12/11 05:14:40;;;;;;;11.33;3.77;;;11.90;99.90;;;;;;5095516;28;20980;-63
2023/12/11 05:17:06;;;;;;;7.70;3.93;;;11.90;99.90;;;;;;5086195;28;20545;-60
2023/12/11 05:19:32;;;;;;;9.93;3.50;;;11.80;99.90;;;;;;5098096;28;20248;-66
2023/12/11 05:21:58;;;;;;;5.63;3.90;;;11.70;99.90;;;;;;5093046;28;20423;-60
2023/12/11 05:24:25;;;;;;;7.40;3.80;;;11.70;99.90;;;;;;5094959;28;20422;-60
2023/12/11 05:26:51;;;;;;;8.70;3.33;;;11.70;99.90;;;;;;5093710;28;20421;-60
2023/12/11 05:29:17;;;;;;;6.20;3.13;;;11.60;99.90;;;;;;5095003;28;20475;-60
2023/12/11 05:31:43;;;;;;;7.50;2.93;;;11.50;99.90;;;;;;5098739;28;20432;-61
2023/12/11 05:34:08;;;;;;;6.70;3.00;;;11.60;99.90;;;;;;5085816;28;20933;-61
2023/12/11 05:36:34;;;;;;;5.33;3.30;;;11.50;99.90;;;;;;5112198;28;20409;-60
2023/12/11 05:39:00;;;;;;;3.70;2.40;;;11.50;99.90;;;;;;5108249;28;20200;-61
2023/12/11 05:41:26;;;;;;;3.47;2.13;;;11.50;99.90;;;;;;5087602;28;20267;-65
2023/12/11 05:43:52;;;;;;;4.87;3.40;;;11.50;99.90;;;;;;5089354;28;20627;-65
2023/12/11 05:46:17;;;;;;;6.13;3.33;;;11.50;99.90;;;;;;5085752;28;20429;-64
2023/12/11 05:48:43;;;;;;;6.03;3.20;;;11.50;99.90;;;;;;5076346;28;20516;-64
2023/12/11 05:51:09;;;;;;;3.60;2.93;;;11.60;99.90;;;;;;5073263;28;20182;-65
2023/12/11 05:53:35;;;;;;;6.23;3.30;;;11.60;99.90;;;;;;5108249;28;20589;-65
2023/12/11 05:56:01;;;;;;;9.67;2.87;;;11.50;99.90;;;;;;5112326;28;20255;-64
2023/12/11 05:58:26;;;;;;;4.27;2.20;;;11.50;99.90;;;;;;5090061;28;20226;-65
2023/12/11 06:00:52;;;;;;;3.70;3.37;;;11.40;99.90;;;;;;5107672;28;20187;-64
2023/12/11 06:03:18;;;;;;;8.23;2.90;;;11.30;99.90;;;;;;5103183;28;20237;-64
2023/12/11 06:05:44;;;;;;;8.47;4.03;;;11.30;99.90;;;;;;5110969;28;20342;-64
2023/12/11 06:08:10;;;;;;;8.63;4.73;;;11.30;99.90;;;;;;5090840;28;20226;-63
2023/12/11 06:10:36;;;;;;;4.83;3.23;;;11.30;99.90;;;;;;5095580;28;20187;-64
2023/12/11 06:13:02;;;;;;;6.47;3.70;;;11.30;99.90;;;;;;5104028;28;20423;-64
2023/12/11 06:15:28;;;;;;;7.30;3.47;;;11.30;99.90;;;;;;5111266;28;20228;-64
2023/12/11 06:17:54;;;;;;;11.83;4.40;;;11.40;99.90;;;;;;5096234;28;20422;-65
2023/12/11 06:20:20;;;;;;;10.80;4.33;;;11.40;99.90;;;;;;5105153;28;20213;-65
2023/12/11 06:22:47;;;;;;;14.13;5.17;;;11.40;99.90;;;;;;5097402;28;20192;-65
2023/12/11 06:25:13;;;;;;;8.50;4.03;;;11.40;99.90;;;;;;5102869;28;20578;-65
2023/12/11 06:27:39;;;;;;;10.13;4.13;;;11.40;99.90;;;;;;5090384;28;20459;-65
2023/12/11 06:30:07;;;;;;;7.60;4.53;;;11.30;99.90;;;;;;5107155;28;20511;-65
2023/12/11 06:32:33;;;;;;;11.53;4.83;;;11.30;99.90;;;;;;5109684;28;20181;-64
2023/12/11 06:34:59;;;;;;;15.40;4.10;;;11.30;99.90;;;;;;5113108;28;20407;-64
2023/12/11 06:37:25;;;;;;;11.07;3.90;;;11.40;99.90;;;;;;5108683;28;20433;-69
2023/12/11 06:39:51;;;;;;;6.33;4.53;;;11.40;99.90;;;;;;5097269;28;20208;-64
2023/12/11 06:42:17;;;;;;;8.00;3.50;;;11.40;99.90;;;;;;5089425;28;20814;-65
2023/12/11 06:44:42;;;;;;;12.03;4.60;;;11.40;99.90;;;;;;5109609;27;20200;-64
2023/12/11 06:47:09;;;;;;;8.33;4.10;;;11.50;99.90;;;;;;5078486;28;20174;-64
2023/12/11 06:49:34;;;;;;;6.33;3.50;;;11.50;99.90;;;;;;5112109;28;20222;-65
2023/12/11 06:52:00;;;;;;;8.27;3.63;;;11.60;99.90;;;;;;5096521;28;20506;-64
2023/12/11 06:54:27;;;;;;;11.90;3.70;;;11.60;99.90;;;;;;5090965;28;20640;-69
2023/12/11 06:56:52;;;;;;;6.57;3.80;;;11.70;99.90;;;;;;5082827;28;20639;-64
2023/12/11 06:59:18;;;;;;;6.03;3.77;;;11.70;99.90;;;;;;5100629;28;20452;-64
2023/12/11 07:01:44;;;;;;;4.70;3.63;;;11.60;99.90;;;;;;5106413;28;20193;-65
2023/12/11 07:04:10;;;;;;;7.50;4.20;;;11.60;99.90;;;;;;5090057;28;20266;-65
2023/12/11 07:06:35;;;;;;;10.37;3.33;;;11.60;99.90;;;;;;5112215;28;20658;-65
2023/12/11 07:09:02;;;;;;;10.30;4.00;;;11.60;99.90;;;;;;5107547;28;20657;-65
2023/12/11 07:11:28;;;;;;;10.30;3.90;;;11.70;99.90;;;;;;5108756;28;20189;-70
2023/12/11 07:13:54;;;;;;;7.13;3.60;;;11.50;99.90;;;;;;5108876;28;20462;-64
2023/12/11 07:16:20;;;;;;;5.80;3.03;;;11.60;99.90;;;;;;5093819;28;20201;-65
2023/12/11 07:18:45;;;;;;;12.97;4.30;;;11.60;99.90;;;;;;5084536;28;20459;-70
2023/12/11 07:21:11;;;;;;;5.67;3.43;;;11.70;99.90;;;;;;5107539;28;20218;-69
2023/12/11 07:23:38;;;;;;;5.80;3.23;;;11.70;99.90;;;;;;5101106;28;20208;-68
2023/12/11 07:26:08;;;;;;;8.50;4.03;;;11.70;99.90;;;;;;5079027;28;20418;-67
2023/12/11 07:28:35;;;;;;;7.33;3.60;;;11.70;99.90;;;;;;5084920;28;20458;-67
2023/12/11 07:31:03;;;;;;;9.10;4.30;;;11.70;99.90;;;;;;5090488;28;20846;-67
2023/12/11 07:33:28;;;;;;;9.60;3.97;;;11.70;99.90;;;;;;5092503;28;20513;-67
2023/12/11 07:35:54;;;;;;;10.63;3.67;;;11.70;99.90;;;;;;5090555;28;20840;-67
2023/12/11 07:38:20;;;;;;;8.90;3.60;;;11.60;99.90;;;;;;5085733;28;20188;-67
2023/12/11 07:40:46;;;;;;;9.20;3.30;;;11.70;99.90;;;;;;5082379;28;20687;-67
2023/12/11 07:43:12;;;;;;;8.97;3.77;;;11.60;99.90;;;;;;5087165;28;20183;-67
2023/12/11 07:45:37;;;;;;;6.43;3.33;;;11.60;99.90;;;;;;5091188;28;20411;-67
2023/12/11 07:48:04;;;;;;;10.67;3.63;;;11.60;99.90;;;;;;5069360;28;20230;-66
2023/12/11 07:50:30;;;;;;;4.53;3.53;;;11.60;99.90;;;;;;5073285;28;20270;-66
2023/12/11 07:52:56;;;;;;;6.83;4.00;;;11.60;99.90;;;;;;5115512;28;20890;-66
2023/12/11 07:55:23;;;;;;;10.33;3.80;;;11.60;99.90;;;;;;5103544;28;20426;-66
2023/12/11 07:57:48;;;;;;;9.60;3.70;;;11.60;99.90;;;;;;5094774;28;20862;-68
2023/12/11 08:00:14;;;;;;;9.93;3.47;;;11.60;99.90;;;;;;5099627;28;20510;-67
2023/12/11 08:02:40;;;;;;;8.07;3.47;;;11.60;99.90;;;;;;5101268;28;20191;-66
2023/12/11 08:05:07;;;;;;;8.30;3.77;;;11.70;99.90;;;;;;5097870;28;20777;-67
2023/12/11 08:07:33;;;;;;;10.77;4.90;;;11.70;99.90;;;;;;5113691;28;20417;-67
2023/12/11 08:09:59;;;;;;;8.80;4.10;;;11.70;99.90;;;;;;5099322;28;20426;-67
2023/12/11 08:12:26;;;;;;;6.20;4.20;;;11.70;99.90;;;;;;5107391;28;20921;-67
2023/12/11 08:14:51;;;;;;;8.03;3.67;;;11.70;99.90;;;;;;5091665;28;20450;-66
2023/12/11 08:17:17;;;;;;;5.03;3.83;;;11.70;99.90;;;;;;5094396;28;20525;-67
2023/12/11 08:19:44;;;;;;;11.13;4.90;;;11.60;99.90;;;;;;5093796;28;20196;-67
2023/12/11 08:22:10;;;;;;;8.37;4.23;;;11.60;99.90;;;;;;5094743;28;20259;-67
2023/12/11 08:24:36;;;;;;;5.40;3.57;;;11.70;99.90;;;;;;5095535;28;20460;-67
2023/12/11 08:27:07;;;;;;;8.17;3.73;;;11.70;99.90;;;;;;5094107;28;20471;-67
2023/12/11 08:29:34;;;;;;;9.00;3.73;;;11.70;99.90;;;;;;5093370;28;20426;-67
2023/12/11 08:32:02;;;;;;;10.73;4.50;;;11.70;99.90;;;;;;5064843;28;20783;-67
2023/12/11 08:34:28;;;;;;;6.50;3.80;;;11.70;99.90;;;;;;5094400;28;20414;-66
2023/12/11 08:36:54;;;;;;;10.40;5.70;;;11.70;99.90;;;;;;5103090;28;20493;-66
2023/12/11 08:39:20;;;;;;;9.83;4.57;;;11.80;99.90;;;;;;5095442;28;20214;-66
2023/12/11 08:41:47;;;;;;;9.90;4.53;;;11.80;99.90;;;;;;5094132;28;20184;-66
2023/12/11 08:44:13;;;;;;;12.27;5.10;;;11.80;99.90;;;;;;5093959;28;20505;-66
2023/12/11 08:46:39;;;;;;;8.03;4.27;;;11.80;99.90;;;;;;5093013;28;20526;-67
2023/12/11 08:49:05;;;;;;;6.97;3.20;;;11.70;99.90;;;;;;5094380;28;20421;-66
2023/12/11 08:51:32;;;;;;;6.70;3.97;;;11.70;99.90;;;;;;5106688;28;20188;-67
2023/12/11 08:53:58;;;;;;;10.23;3.60;;;11.60;99.90;;;;;;5099818;28;20171;-66
2023/12/11 08:56:23;;;;;;;8.50;3.97;;;11.70;99.90;;;;;;5105920;28;20422;-67
2023/12/11 08:58:50;;;;;;;3.77;3.47;;;11.60;99.90;;;;;;5097131;28;20216;-72
2023/12/11 09:01:17;;;;;;;7.30;4.10;;;11.60;99.90;;;;;;5096939;28;20846;-68
2023/12/11 09:03:44;;;;;;;6.37;4.00;;;12.00;99.90;;;;;;5086337;28;20546;-70
2023/12/11 09:06:10;;;;;;;7.60;3.67;;;12.30;99.90;;;;;;5075896;28;20432;-71
2023/12/11 09:08:36;;;;;;;8.30;5.07;;;12.70;99.90;;;;;;5096123;28;20416;-71
2023/12/11 09:11:02;;;;;;;8.73;4.10;;;13.10;99.90;;;;;;5101820;28;20784;-72
2023/12/11 09:13:28;;;;;;;4.87;4.10;;;13.30;99.90;;;;;;5093232;28;20422;-71
2023/12/11 09:15:54;;;;;;;7.03;3.60;;;13.60;99.90;;;;;;5091857;28;20324;-72
2023/12/11 09:18:19;;;;;;;6.70;3.50;;;13.90;99.90;;;;;;5093755;28;20810;-71
2023/12/11 09:20:45;;;;;;;7.53;3.90;;;14.00;99.90;;;;;;5093234;27;20180;-71
2023/12/11 09:23:11;;;;;;;5.97;3.97;;;14.00;99.90;;;;;;5088704;28;20516;-71
2023/12/11 09:25:37;;;;;;;9.07;3.90;;;14.00;99.90;;;;;;5122528;27;20564;-71
2023/12/11 09:28:04;;;;;;;9.80;5.17;;;14.20;99.90;;;;;;5108189;28;20465;-71
2023/12/11 09:30:30;;;;;;;6.97;4.50;;;14.30;99.90;;;;;;5112231;28;20781;-71
2023/12/11 09:32:56;;;;;;;8.10;4.10;;;14.30;99.90;;;;;;5094414;28;20414;-72
2023/12/11 09:35:22;;;;;;;11.73;4.40;;;14.30;99.90;;;;;;5093410;28;20422;-71
2023/12/11 09:37:48;;;;;;;4.97;4.50;;;14.20;99.90;;;;;;5095551;28;20543;-71
2023/12/11 09:40:14;;;;;;;5.47;3.27;;;14.20;99.90;;;;;;5092985;28;20462;-71
2023/12/11 09:42:42;;;;;;;6.90;4.10;;;14.30;99.90;;;;;;5078370;28;20189;-72
2023/12/11 09:45:10;;;;;;;6.67;3.67;;;14.30;99.90;;;;;;5082192;28;20431;-72
2023/12/11 09:47:57;;;;;;;9.27;4.50;;;14.30;99.90;;;;;;5073028;28;20412;-70
2023/12/11 09:50:24;;;;;;;8.20;4.37;;;14.30;99.90;;;;;;5077778;28;20416;-71
2023/12/11 09:52:52;;;;;;;9.23;4.67;;;14.30;99.90;;;;;;5084946;28;20424;-72
2023/12/11 09:55:18;;;;;;;9.70;4.50;;;14.30;99.90;;;;;;5093096;28;20427;-72
2023/12/11 09:57:46;;;;;;;6.50;3.67;;;14.30;99.90;;;;;;5079746;28;20419;-72
2023/12/11 10:00:13;;;;;;;10.20;4.00;;;14.30;99.90;;;;;;5088739;28;20458;-72
2023/12/11 10:02:40;;;;;;;7.03;4.00;;;14.30;99.90;;;;;;5092515;28;20426;-68
2023/12/11 10:05:08;;;;;;;8.30;3.70;;;14.30;99.90;;;;;;5092869;28;20771;-71
2023/12/11 10:07:36;;;;;;;7.17;4.70;;;14.40;99.90;;;;;;5092036;28;20427;-72
2023/12/11 10:10:23;;;;;;;8.60;4.00;;;14.40;99.90;;;;;;5096515;28;20536;-71
2023/12/11 10:12:49;;;;;;;4.40;3.83;;;14.40;99.90;;;;;;5085984;28;20432;-72
2023/12/11 10:15:20;;;;;;;6.27;4.00;;;14.40;99.90;;;;;;5094403;28;20465;-71
2023/12/11 10:17:46;;;;;;;4.67;4.17;;;14.40;99.90;;;;;;5086805;28;20431;-71
2023/12/11 10:20:18;;;;;;;4.37;3.53;;;14.30;99.90;;;;;;5092423;28;20447;-74
2023/12/11 10:22:44;;;;;;;7.27;5.93;;;14.40;99.90;;;;;;5110200;28;20432;-71
2023/12/11 10:25:10;;;;;;;7.50;5.10;;;14.50;99.90;;;;;;5106384;28;20425;-71
2023/12/11 10:27:36;;;;;;;5.37;3.70;;;14.60;99.90;;;;;;5090377;28;20184;-71
2023/12/11 10:30:12;;;;;;;7.47;3.80;;;14.60;99.90;;;;;;5096793;28;20294;-71
2023/12/11 10:32:39;;;;;;;5.77;4.10;;;14.60;99.90;;;;;;5100844;28;20218;-70
2023/12/11 10:35:06;;;;;;;40.80;30.07;;;14.60;99.90;;;;;;5086341;28;20425;-72
2023/12/11 10:37:34;;;;;;;95.43;65.73;;;14.60;99.90;;;;;;5086136;28;20432;-70
2023/12/11 10:40:00;;;;;;;7.83;5.67;;;14.70;99.90;;;;;;5107224;27;20952;-70
2023/12/11 10:42:27;;;;;;;9.77;6.83;;;14.60;99.90;;;;;;5089934;28;20496;-71
2023/12/11 10:44:55;;;;;;;12.80;10.43;;;14.60;99.90;;;;;;5101737;28;20419;-72
2023/12/11 10:47:22;;;;;;;8.40;4.83;;;14.60;99.90;;;;;;5091404;28;20424;-70
2023/12/11 10:49:49;;;;;;;5.63;4.80;;;14.70;99.90;;;;;;5081126;28;20496;-70
2023/12/11 10:52:14;;;;;;;9.33;5.43;;;14.70;99.90;;;;;;5093579;28;20427;-70
2023/12/11 10:54:43;;;;;;;9.50;6.20;;;14.80;99.90;;;;;;5100859;28;20497;-70
2023/12/11 10:57:14;;;;;;;11.33;4.93;;;14.80;99.90;;;;;;5097717;28;20242;-71
2023/12/11 10:59:41;;;;;;;7.90;4.30;;;14.80;99.90;;;;;;5083505;28;20495;-70
2023/12/11 11:02:09;;;;;;;7.00;4.40;;;14.70;99.90;;;;;;5081565;28;20511;-71
2023/12/11 11:04:39;;;;;;;7.93;6.07;;;14.60;99.90;;;;;;5088323;28;20462;-70
2023/12/11 11:07:11;;;;;;;8.80;5.10;;;14.60;99.90;;;;;;5089168;28;20428;-70
2023/12/11 11:10:06;;;;;;;27.67;16.10;;;14.50;99.90;;;;;;5102952;28;20531;-67
2023/12/11 11:12:41;;;;;;;11.77;7.67;;;14.40;99.90;;;;;;5104058;28;20432;-70
2023/12/11 11:15:09;;;;;;;12.90;7.50;;;14.50;99.90;;;;;;5109420;28;20559;-71
2023/12/11 11:17:58;;;;;;;6.20;4.30;;;14.50;99.90;;;;;;5104839;28;20448;-69
2023/12/11 11:20:25;;;;;;;7.83;5.50;;;14.50;99.90;;;;;;5098171;28;20498;-71
2023/12/11 11:22:51;;;;;;;9.27;6.47;;;14.60;99.90;;;;;;5085616;28;20440;-71
2023/12/11 11:25:29;;;;;;;9.03;5.27;;;14.70;99.90;;;;;;5075540;28;20438;-71
2023/12/11 11:27:55;;;;;;;9.50;5.30;;;14.70;99.90;;;;;;5076989;28;20436;-70
2023/12/11 11:30:45;;;;;;;7.53;5.47;;;14.70;99.90;;;;;;5084419;28;20518;-70
2023/12/11 11:33:11;;;;;;;6.67;4.37;;;14.70;99.90;;;;;;5088997;28;20419;-72
2023/12/11 11:35:43;;;;;;;6.03;5.43;;;14.60;99.90;;;;;;5086308;28;20443;-70
2023/12/11 11:38:09;;;;;;;6.13;4.70;;;14.60;99.90;;;;;;5108314;28;20435;-72
2023/12/11 11:40:36;;;;;;;5.37;4.20;;;14.60;99.90;;;;;;5093499;28;20456;-71
2023/12/11 11:43:03;;;;;;;4.77;4.30;;;14.60;99.90;;;;;;5089120;28;20435;-72
2023/12/11 11:45:32;;;;;;;4.50;4.10;;;14.70;99.90;;;;;;5087913;28;20430;-72
2023/12/11 11:47:57;;;;;;;8.17;4.57;;;14.70;99.90;;;;;;5107607;27;20942;-72
2023/12/11 11:50:23;;;;;;;6.37;4.40;;;14.80;99.90;;;;;;5090490;28;20434;-72
2023/12/11 11:53:00;;;;;;;4.53;3.40;;;14.70;99.90;;;;;;5091599;28;20180;-71
2023/12/11 11:55:28;;;;;;;3.83;3.43;;;14.70;99.90;;;;;;5093807;28;20189;-71
2023/12/11 11:57:55;;;;;;;6.07;3.60;;;14.60;99.90;;;;;;5092291;28;20455;-72
2023/12/11 12:00:22;;;;;;;3.97;3.67;;;14.50;99.90;;;;;;5098260;28;20454;-72
2023/12/11 12:03:00;;;;;;;3.90;3.50;;;14.50;99.90;;;;;;5094972;28;20416;-71
2023/12/11 12:05:26;;;;;;;3.70;3.20;;;14.50;99.90;;;;;;5109697;28;20926;-71
2023/12/11 12:07:52;;;;;;;3.77;3.40;;;14.50;99.90;;;;;;5091420;28;20421;-71
2023/12/11 12:10:19;;;;;;;3.80;3.50;;;14.50;99.90;;;;;;5088205;28;20426;-71
2023/12/11 12:12:54;;;;;;;3.13;2.80;;;14.60;99.90;;;;;;5094572;28;20435;-71
2023/12/11 12:15:20;;;;;;;3.50;3.30;;;14.50;99.90;;;;;;5100752;28;20474;-72
2023/12/11 12:17:46;;;;;;;3.97;3.67;;;14.50;99.90;;;;;;5111826;28;20428;-71
2023/12/11 12:20:17;;;;;;;4.17;3.40;;;14.50;99.90;;;;;;5097487;28;20461;-72
2023/12/11 12:23:03;;;;;;;3.37;2.77;;;14.40;99.90;;;;;;5101882;28;20470;-71
2023/12/11 12:25:30;;;;;;;5.47;2.70;;;14.40;99.90;;;;;;5109893;28;20427;-71
2023/12/11 12:28:04;;;;;;;4.50;2.63;;;14.50;99.90;;;;;;5104193;28;20844;-71
2023/12/11 12:30:31;;;;;;;5.10;3.20;;;14.40;99.90;;;;;;5107258;28;20433;-70
2023/12/11 12:32:58;;;;;;;3.50;2.40;;;14.40;99.90;;;;;;5093471;28;20453;-70
2023/12/11 12:35:25;;;;;;;3.90;2.60;;;14.50;99.90;;;;;;5082711;28;20416;-71
2023/12/11 12:37:51;;;;;;;3.03;2.50;;;14.60;99.90;;;;;;5086858;28;20490;-71
2023/12/11 12:40:17;;;;;;;3.70;2.50;;;14.50;99.90;;;;;;5086614;28;20453;-71